createdAt,value
2022-09-07T00:00:46.899Z,1.70
2022-09-07T00:10:48.151Z,1.50
2022-09-07T00:20:49.434Z,1.58
2022-09-07T00:30:50.725Z,1.30
2022-09-07T00:40:52.026Z,1.50
2022-09-07T00:50:53.345Z,1.50
2022-09-07T01:00:54.697Z,1.50
2022-09-07T01:10:55.935Z,1.50
2022-09-07T01:20:57.209Z,1.52
2022-09-07T01:30:58.562Z,1.33
2022-09-07T01:40:59.861Z,1.48
2022-09-07T01:51:01.127Z,1.40
2022-09-07T02:01:02.427Z,1.67
2022-09-07T02:11:03.686Z,1.45
2022-09-07T02:21:05.034Z,1.50
2022-09-07T02:31:06.380Z,1.38
2022-09-07T02:41:07.664Z,1.30
2022-09-07T02:51:09.001Z,1.30
2022-09-07T03:01:10.375Z,1.60
2022-09-07T03:11:11.644Z,1.40
2022-09-07T03:21:12.896Z,1.40
2022-09-07T03:31:14.388Z,1.30
2022-09-07T03:41:15.678Z,1.30
2022-09-07T03:51:16.950Z,1.30
2022-09-07T04:01:18.335Z,1.40
2022-09-07T04:11:19.767Z,1.30
2022-09-07T04:21:21.070Z,1.45
2022-09-07T04:31:22.410Z,1.30
2022-09-07T04:41:23.761Z,1.42
2022-09-07T04:51:25.030Z,1.20
2022-09-07T05:01:26.451Z,1.38
2022-09-07T05:11:29.361Z,1.45
2022-09-07T05:21:30.930Z,1.40
2022-09-07T05:31:32.195Z,1.50
2022-09-07T05:41:33.450Z,1.55
2022-09-07T05:51:34.821Z,1.63
2022-09-07T06:01:38.475Z,1.63
2022-09-07T06:11:39.783Z,1.60
2022-09-07T06:21:41.189Z,1.67
2022-09-07T06:42:03.864Z,1.80
2022-09-07T06:52:05.291Z,1.83
2022-09-07T07:02:06.660Z,1.90
2022-09-07T07:12:07.964Z,2.40
2022-09-07T07:22:42.581Z,2.20
2022-09-07T07:43:01.620Z,2.90
2022-09-07T08:13:53.093Z,2.95
2022-09-07T08:23:57.759Z,2.28
2022-09-07T08:44:30.080Z,2.10
2022-09-07T08:54:31.505Z,1.98
2022-09-07T09:05:15.155Z,2.00
2022-09-07T09:14:56.220Z,2.00
2022-09-07T09:24:58.062Z,1.60
2022-09-07T09:34:59.673Z,1.80
2022-09-07T09:45:03.956Z,1.73
2022-09-07T09:55:33.358Z,1.58
2022-09-07T10:05:33.948Z,1.50
2022-09-07T10:15:41.049Z,1.80
2022-09-07T10:25:44.723Z,1.73
2022-09-07T10:35:54.810Z,2.00
2022-09-07T10:45:57.060Z,1.70
2022-09-07T10:56:06.008Z,1.83
2022-09-07T11:06:13.585Z,1.30
2022-09-07T11:26:44.797Z,1.58
2022-09-07T11:36:47.697Z,1.40
2022-09-07T11:46:51.887Z,1.33
2022-09-07T11:57:06.650Z,1.65
2022-09-07T12:07:10.319Z,1.40
2022-09-07T12:17:12.931Z,1.25
2022-09-07T12:27:20.659Z,1.38
2022-09-07T12:37:24.960Z,1.50
2022-09-07T12:47:32.643Z,1.30
2022-09-07T13:08:08.688Z,1.27
2022-09-07T13:18:10.815Z,1.27
2022-09-07T13:28:12.188Z,1.50
2022-09-07T13:38:17.579Z,1.30
2022-09-07T13:48:22.628Z,1.10
2022-09-07T13:58:30.639Z,1.23
2022-09-07T14:08:40.630Z,1.02
2022-09-07T14:29:10.828Z,1.20
2022-09-07T14:39:12.278Z,1.23
2022-09-07T14:49:13.519Z,1.17
2022-09-07T14:59:22.472Z,1.02
2022-09-07T15:19:53.051Z,1.05
2022-09-07T15:50:58.878Z,0.90
2022-09-07T16:11:28.024Z,1.20
2022-09-07T16:21:29.328Z,1.10
2022-09-07T16:31:32.010Z,0.95
2022-09-07T16:41:39.652Z,0.98
2022-09-07T16:51:47.625Z,1.20
2022-09-07T17:01:55.677Z,1.20
2022-09-07T17:22:18.953Z,1.20
2022-09-07T17:32:24.448Z,1.40
2022-09-07T17:43:38.699Z,1.05
2022-09-07T17:52:52.979Z,1.08
2022-09-07T18:02:54.482Z,1.20
2022-09-07T18:12:55.824Z,1.30
2022-09-07T18:22:57.790Z,1.10
2022-09-07T18:32:59.407Z,1.10
2022-09-07T18:43:00.817Z,1.23
2022-09-07T18:53:14.460Z,1.30
2022-09-07T19:03:17.987Z,1.38
2022-09-07T19:13:19.235Z,1.10
2022-09-07T19:23:22.939Z,1.30
2022-09-07T19:33:25.558Z,1.30
2022-09-07T19:43:26.938Z,1.40
2022-09-07T19:53:28.507Z,1.30
2022-09-07T20:03:30.033Z,1.27
2022-09-07T20:13:31.402Z,1.42
2022-09-07T20:23:32.784Z,1.20
2022-09-07T20:33:34.145Z,1.40
2022-09-07T20:43:35.462Z,1.80
2022-09-07T20:53:36.827Z,1.80
2022-09-07T21:03:38.242Z,1.58
2022-09-07T21:13:39.476Z,1.67
2022-09-07T21:23:40.707Z,1.67
2022-09-07T21:33:42.109Z,1.67
2022-09-07T21:43:43.358Z,1.80
2022-09-07T21:53:44.621Z,2.00
2022-09-07T22:03:46.123Z,2.05
2022-09-07T22:13:47.387Z,1.55
2022-09-07T22:23:48.633Z,1.98
2022-09-07T22:33:49.907Z,1.73
2022-09-07T22:43:51.209Z,1.60
2022-09-07T22:53:52.499Z,1.77
2022-09-07T23:03:53.805Z,1.70
2022-09-07T23:24:24.412Z,1.73
2022-09-07T23:34:25.631Z,1.85
2022-09-07T23:44:26.945Z,1.63
2022-09-07T23:54:28.734Z,1.42
